createdAt,value
2022-09-02T00:01:44.571Z,74.20
2022-09-02T00:04:15.842Z,73.28
2022-09-02T00:06:45.749Z,73.98
2022-09-02T00:09:15.643Z,74.69
2022-09-02T00:11:46.484Z,72.59
2022-09-02T00:14:19.331Z,72.69
2022-09-02T00:16:51.112Z,73.01
2022-09-02T00:19:20.287Z,73.96
2022-09-02T00:21:48.354Z,73.41
2022-09-02T00:24:19.214Z,74.64
2022-09-02T00:26:48.180Z,74.20
2022-09-02T00:29:18.622Z,75.24
2022-09-02T00:31:48.326Z,75.08
2022-09-02T00:34:16.541Z,74.42
2022-09-02T00:36:44.824Z,75.57
2022-09-02T00:39:15.130Z,74.83
2022-09-02T00:41:45.011Z,75.47
2022-09-02T00:44:16.082Z,77.30
2022-09-02T00:46:45.732Z,80.59
2022-09-02T00:49:18.992Z,81.65
2022-09-02T00:51:51.060Z,82.21
2022-09-02T00:54:22.910Z,82.90
2022-09-02T00:56:55.648Z,82.24
2022-09-02T00:59:31.439Z,82.07
2022-09-02T01:02:00.947Z,81.78
2022-09-02T01:04:29.326Z,81.85
2022-09-02T01:06:57.304Z,82.17
2022-09-02T01:09:25.154Z,82.72
2022-09-02T01:11:53.596Z,82.83
2022-09-02T01:14:22.343Z,82.76
2022-09-02T01:16:53.184Z,83.04
2022-09-02T01:19:25.909Z,83.41
2022-09-02T01:21:58.810Z,83.57
2022-09-02T01:24:31.011Z,83.32
2022-09-02T01:27:02.118Z,83.64
2022-09-02T01:29:30.413Z,84.14
2022-09-02T01:31:58.692Z,83.50
2022-09-02T01:34:26.893Z,83.27
2022-09-02T01:36:55.295Z,82.86
2022-09-02T01:39:24.939Z,82.29
2022-09-02T01:41:53.759Z,82.40
2022-09-02T01:44:21.696Z,82.16
2022-09-02T01:46:51.234Z,81.27
2022-09-02T01:49:19.406Z,81.59
2022-09-02T01:51:47.586Z,81.08
2022-09-02T01:54:17.955Z,81.23
2022-09-02T01:56:47.524Z,80.72
2022-09-02T01:59:18.141Z,81.12
2022-09-02T02:01:46.923Z,80.74
2022-09-02T02:04:16.986Z,80.30
2022-09-02T02:06:48.831Z,79.21
2022-09-02T02:09:22.305Z,77.72
2022-09-02T02:11:54.339Z,75.48
2022-09-02T02:14:23.443Z,76.67
2022-09-02T02:16:52.349Z,77.93
2022-09-02T02:19:20.345Z,77.32
2022-09-02T02:21:50.858Z,77.33
2022-09-02T02:24:19.095Z,75.35
2022-09-02T02:26:47.666Z,75.08
2022-09-02T02:29:18.959Z,73.35
2022-09-02T02:31:47.087Z,72.53
2022-09-02T02:34:15.149Z,74.94
2022-09-02T02:36:44.582Z,75.77
2022-09-02T02:39:13.954Z,74.88
2022-09-02T02:41:44.946Z,73.61
2022-09-02T02:44:13.849Z,76.98
2022-09-02T02:46:43.235Z,78.75
2022-09-02T02:49:12.222Z,78.76
2022-09-02T02:51:40.420Z,79.21
2022-09-02T02:54:10.385Z,79.92
2022-09-02T02:56:38.570Z,77.93
2022-09-02T02:59:06.664Z,78.46
2022-09-02T03:01:35.882Z,77.71
2022-09-02T03:04:07.275Z,77.63
2022-09-02T03:06:35.781Z,78.48
2022-09-02T03:09:05.802Z,78.91
2022-09-02T03:11:36.461Z,78.73
2022-09-02T03:14:08.552Z,78.99
2022-09-02T03:16:37.693Z,80.12
2022-09-02T03:19:07.308Z,78.95
2022-09-02T03:21:39.274Z,80.84
2022-09-02T03:24:10.094Z,81.34
2022-09-02T03:26:39.649Z,80.48
2022-09-02T03:29:07.680Z,81.02
2022-09-02T03:31:35.934Z,81.57
2022-09-02T03:34:04.664Z,82.24
2022-09-02T03:36:39.753Z,83.01
2022-09-02T03:39:13.115Z,80.64
2022-09-02T03:41:43.658Z,82.24
2022-09-02T03:44:12.474Z,82.02
2022-09-02T03:46:41.955Z,82.50
2022-09-02T03:49:10.164Z,81.20
2022-09-02T03:51:43.553Z,80.46
2022-09-02T03:54:12.358Z,80.18
2022-09-02T03:56:41.624Z,76.95
2022-09-02T03:59:10.370Z,77.48
2022-09-02T04:01:38.407Z,76.93
2022-09-02T04:04:07.111Z,81.30
2022-09-02T04:06:37.726Z,83.36
2022-09-02T04:09:08.295Z,81.45
2022-09-02T04:11:42.628Z,81.96
2022-09-02T04:14:12.262Z,78.42
2022-09-02T04:17:35.469Z,80.09
2022-09-02T04:20:49.758Z,82.48
2022-09-02T04:23:17.867Z,82.74
2022-09-02T04:25:47.915Z,81.15
2022-09-02T04:28:17.877Z,78.61
2022-09-02T04:30:47.321Z,76.87
2022-09-02T04:33:16.076Z,75.46
2022-09-02T04:35:49.280Z,74.44
2022-09-02T04:38:20.890Z,73.72
2022-09-02T04:40:50.380Z,74.28
2022-09-02T04:43:20.261Z,74.19
2022-09-02T04:45:49.062Z,73.13
2022-09-02T04:48:20.923Z,72.53
2022-09-02T04:50:50.131Z,72.66
2022-09-02T04:53:19.265Z,72.22
2022-09-02T04:55:48.235Z,72.14
2022-09-02T04:58:17.982Z,72.52
2022-09-02T05:00:48.982Z,72.00
2022-09-02T05:03:20.175Z,72.06
2022-09-02T05:05:49.260Z,72.86
2022-09-02T05:08:23.733Z,73.85
2022-09-02T05:10:55.467Z,74.13
2022-09-02T05:13:26.057Z,73.14
2022-09-02T05:15:54.813Z,72.62
2022-09-02T05:18:23.577Z,72.63
2022-09-02T05:20:51.855Z,72.01
2022-09-02T05:23:20.526Z,71.79
2022-09-02T05:25:48.469Z,71.19
2022-09-02T05:28:18.212Z,70.99
2022-09-02T05:30:49.263Z,71.12
2022-09-02T05:33:18.361Z,71.02
2022-09-02T05:35:50.007Z,71.08
2022-09-02T05:38:18.840Z,70.83
2022-09-02T05:40:48.672Z,70.94
2022-09-02T05:43:17.014Z,70.77
2022-09-02T05:45:45.014Z,71.31
2022-09-02T05:48:32.914Z,75.71
2022-09-02T05:51:05.682Z,76.41
2022-09-02T05:53:34.863Z,78.44
2022-09-02T05:56:06.127Z,78.12
2022-09-02T05:58:35.510Z,78.52
2022-09-02T06:01:08.966Z,78.34
2022-09-02T06:03:38.747Z,76.28
2022-09-02T06:06:09.075Z,77.38
2022-09-02T06:08:41.261Z,76.99
2022-09-02T06:11:12.050Z,75.00
2022-09-02T06:13:43.327Z,75.77
2022-09-02T06:16:15.472Z,74.76
2022-09-02T06:18:46.587Z,73.20
2022-09-02T06:21:15.248Z,75.63
2022-09-02T06:23:46.963Z,74.60
2022-09-02T06:26:19.000Z,75.68
2022-09-02T06:28:47.462Z,76.29
2022-09-02T06:31:20.034Z,73.07
2022-09-02T06:33:54.191Z,72.67
2022-09-02T06:36:28.292Z,71.30
2022-09-02T06:38:59.728Z,68.90
2022-09-02T06:41:30.829Z,67.39
2022-09-02T06:44:07.108Z,68.84
2022-09-02T06:46:40.366Z,68.15
2022-09-02T06:49:11.773Z,68.07
2022-09-02T06:51:42.916Z,68.88
2022-09-02T06:54:14.214Z,66.40
2022-09-02T06:56:46.012Z,67.14
2022-09-02T06:59:18.917Z,67.08
2022-09-02T07:01:51.569Z,65.29
2022-09-02T07:04:41.568Z,64.13
2022-09-02T07:07:12.072Z,64.38
2022-09-02T07:09:50.678Z,63.02
2022-09-02T07:12:19.848Z,63.53
2022-09-02T07:14:53.295Z,63.24
2022-09-02T07:17:29.538Z,63.12
2022-09-02T07:20:05.881Z,62.91
2022-09-02T07:22:40.430Z,61.89
2022-09-02T07:25:11.593Z,60.95
2022-09-02T07:27:39.794Z,60.12
2022-09-02T07:30:12.212Z,59.99
2022-09-02T07:32:41.746Z,60.24
2022-09-02T07:35:12.767Z,59.74
2022-09-02T07:37:42.156Z,58.56
2022-09-02T07:40:14.413Z,57.57
2022-09-02T07:42:46.021Z,56.66
2022-09-02T07:45:14.371Z,56.55
2022-09-02T07:47:44.152Z,55.26
2022-09-02T07:50:19.535Z,54.84
2022-09-02T07:52:53.695Z,54.77
2022-09-02T07:55:23.155Z,53.06
2022-09-02T07:57:54.504Z,54.05
2022-09-02T08:00:27.428Z,52.18
2022-09-02T08:02:57.412Z,52.03
2022-09-02T08:05:33.236Z,50.71
2022-09-02T08:08:04.815Z,50.15
2022-09-02T08:10:33.842Z,49.53
2022-09-02T08:13:02.255Z,48.58
2022-09-02T08:15:31.335Z,47.44
2022-09-02T08:18:22.344Z,47.47
2022-09-02T08:20:56.530Z,47.86
2022-09-02T08:23:40.217Z,47.17
2022-09-02T08:26:08.491Z,46.14
2022-09-02T08:28:36.678Z,47.27
2022-09-02T08:31:08.525Z,46.54
2022-09-02T08:33:36.751Z,45.94
2022-09-02T08:36:11.105Z,45.29
2022-09-02T08:38:39.445Z,44.24
2022-09-02T08:41:14.854Z,44.65
2022-09-02T08:43:45.244Z,44.53
2022-09-02T08:46:18.261Z,44.36
2022-09-02T08:48:50.801Z,44.06
2022-09-02T08:51:25.164Z,42.55
2022-09-02T08:53:58.936Z,42.53
2022-09-02T08:56:28.293Z,42.36
2022-09-02T08:58:57.346Z,44.27
2022-09-02T09:01:34.577Z,40.74
2022-09-02T09:04:17.656Z,41.87
2022-09-02T09:07:05.349Z,41.99
2022-09-02T09:09:50.491Z,41.43
2022-09-02T09:12:31.305Z,40.00
2022-09-02T09:15:07.493Z,40.29
2022-09-02T09:17:44.367Z,38.86
2022-09-02T09:20:19.832Z,40.72
2022-09-02T09:22:50.860Z,39.76
2022-09-02T09:25:20.095Z,39.48
2022-09-02T09:27:48.367Z,39.09
2022-09-02T09:30:16.363Z,41.82
2022-09-02T09:32:48.217Z,40.10
2022-09-02T09:35:18.773Z,39.13
2022-09-02T09:37:50.318Z,40.06
2022-09-02T09:40:24.399Z,37.85
2022-09-02T09:42:56.897Z,37.28
2022-09-02T09:45:32.377Z,38.03
2022-09-02T09:48:19.061Z,36.95
2022-09-02T09:50:48.706Z,35.90
2022-09-02T09:53:22.243Z,36.47
2022-09-02T09:55:55.534Z,37.85
2022-09-02T09:58:25.410Z,37.47
2022-09-02T10:01:00.424Z,34.79
2022-09-02T10:03:33.013Z,37.20
2022-09-02T10:06:19.473Z,38.43
2022-09-02T10:08:54.720Z,36.95
2022-09-02T10:11:27.080Z,35.59
2022-09-02T10:14:00.120Z,35.85
2022-09-02T10:16:42.459Z,38.26
2022-09-02T10:19:25.048Z,35.85
2022-09-02T10:22:07.128Z,35.85
2022-09-02T10:24:51.672Z,35.14
2022-09-02T10:27:27.348Z,35.22
2022-09-02T10:30:00.216Z,35.22
2022-09-02T10:32:49.321Z,34.17
2022-09-02T10:35:22.787Z,35.00
2022-09-02T10:38:07.234Z,35.63
2022-09-02T10:40:45.147Z,34.97
2022-09-02T10:43:28.187Z,34.54
2022-09-02T10:46:00.615Z,34.16
2022-09-02T10:48:46.651Z,35.47
2022-09-02T10:51:21.913Z,34.41
2022-09-02T10:54:01.070Z,33.98
2022-09-02T10:56:35.580Z,33.21
2022-09-02T10:59:09.183Z,33.53
2022-09-02T11:01:47.941Z,34.30
2022-09-02T11:04:25.118Z,33.67
2022-09-02T11:07:03.539Z,32.85
2022-09-02T11:09:37.584Z,32.73
2022-09-02T11:12:15.844Z,33.40
2022-09-02T11:14:54.789Z,32.96
2022-09-02T11:17:32.154Z,33.42
2022-09-02T11:20:07.894Z,32.49
2022-09-02T11:22:45.988Z,34.17
2022-09-02T11:25:17.270Z,32.38
2022-09-02T11:27:54.011Z,31.98
2022-09-02T11:30:25.497Z,32.29
2022-09-02T11:33:01.109Z,32.58
2022-09-02T11:35:39.825Z,32.80
2022-09-02T11:38:19.408Z,32.17
2022-09-02T11:44:04.828Z,32.42
2022-09-02T11:46:49.162Z,33.26
2022-09-02T11:49:52.636Z,32.50
2022-09-02T11:52:40.798Z,32.15
2022-09-02T11:55:16.582Z,31.67
2022-09-02T11:57:52.486Z,32.61
2022-09-02T12:00:31.904Z,31.54
2022-09-02T12:03:28.393Z,33.00
2022-09-02T12:06:14.300Z,31.51
2022-09-02T12:09:07.660Z,31.24
2022-09-02T12:11:41.820Z,30.87
2022-09-02T12:14:13.716Z,30.62
2022-09-02T12:16:46.530Z,30.32
2022-09-02T12:19:28.443Z,30.13
2022-09-02T12:22:38.552Z,30.76
2022-09-02T12:25:42.322Z,30.65
2022-09-02T12:28:18.903Z,30.59
2022-09-02T12:31:15.869Z,30.21
2022-09-02T12:33:49.349Z,30.10
2022-09-02T12:36:46.839Z,29.60
2022-09-02T12:39:47.204Z,30.28
2022-09-02T12:42:23.781Z,29.92
2022-09-02T12:44:59.822Z,31.99
2022-09-02T12:47:47.503Z,31.31
2022-09-02T12:50:27.740Z,31.26
2022-09-02T12:53:19.229Z,31.22
2022-09-02T12:55:57.082Z,31.16
2022-09-02T12:58:26.089Z,31.34
2022-09-02T13:01:05.573Z,31.75
2022-09-02T13:04:12.993Z,31.59
2022-09-02T13:07:05.253Z,32.65
2022-09-02T13:10:04.523Z,31.95
2022-09-02T13:12:59.008Z,31.11
2022-09-02T13:15:47.258Z,30.74
2022-09-02T13:18:42.178Z,33.05
2022-09-02T13:21:45.381Z,32.16
2022-09-02T13:24:46.932Z,33.51
2022-09-02T13:27:47.670Z,32.97
2022-09-02T13:30:20.840Z,33.26
2022-09-02T13:32:58.504Z,33.06
2022-09-02T13:35:29.529Z,32.13
2022-09-02T13:38:02.665Z,33.19
2022-09-02T13:40:34.593Z,32.76
2022-09-02T13:43:04.716Z,31.57
2022-09-02T13:45:36.139Z,31.96
2022-09-02T13:48:11.428Z,32.37
2022-09-02T13:50:45.239Z,32.72
2022-09-02T13:56:17.235Z,32.60
2022-09-02T13:58:48.937Z,32.94
2022-09-02T14:01:30.082Z,33.48
2022-09-02T14:04:00.133Z,33.31
2022-09-02T14:06:31.508Z,33.95
2022-09-02T14:09:02.591Z,33.64
2022-09-02T14:11:39.447Z,33.68
2022-09-02T14:14:07.737Z,34.07
2022-09-02T14:16:37.755Z,33.38
2022-09-02T14:19:11.753Z,34.11
2022-09-02T14:21:47.110Z,33.87
2022-09-02T14:24:17.553Z,34.21
2022-09-02T14:26:48.767Z,34.29
2022-09-02T14:29:18.990Z,34.14
2022-09-02T14:31:48.168Z,33.99
2022-09-02T14:34:37.436Z,34.59
2022-09-02T14:37:24.077Z,34.57
2022-09-02T14:40:09.030Z,34.27
2022-09-02T14:42:57.518Z,34.59
2022-09-02T14:45:28.141Z,34.83
2022-09-02T14:47:57.925Z,33.90
2022-09-02T14:50:30.460Z,34.69
2022-09-02T14:53:05.068Z,34.15
2022-09-02T14:55:50.100Z,34.42
2022-09-02T14:58:21.081Z,34.11
2022-09-02T15:00:56.346Z,34.39
2022-09-02T15:03:25.188Z,34.77
2022-09-02T15:05:53.918Z,35.00
2022-09-02T15:08:22.250Z,35.70
2022-09-02T15:10:50.751Z,35.92
2022-09-02T15:13:32.373Z,34.97
2022-09-02T15:16:00.860Z,35.34
2022-09-02T15:18:28.956Z,35.44
2022-09-02T15:20:57.516Z,35.45
2022-09-02T15:23:27.183Z,35.93
2022-09-02T15:25:56.435Z,35.28
2022-09-02T15:28:25.720Z,35.94
2022-09-02T15:30:59.317Z,35.95
2022-09-02T15:33:27.501Z,37.71
2022-09-02T15:35:55.739Z,36.68
2022-09-02T15:38:23.850Z,35.90
2022-09-02T15:40:51.734Z,35.62
2022-09-02T15:43:22.633Z,35.72
2022-09-02T15:45:52.017Z,35.72
2022-09-02T15:48:20.045Z,36.08
2022-09-02T15:50:48.001Z,35.50
2022-09-02T15:53:16.480Z,35.75
2022-09-02T15:55:44.425Z,35.45
2022-09-02T15:58:12.527Z,37.03
2022-09-02T16:00:43.912Z,37.36
2022-09-02T16:03:13.446Z,36.44
2022-09-02T16:05:43.256Z,36.26
2022-09-02T16:08:14.185Z,36.84
2022-09-02T16:10:42.183Z,36.44
2022-09-02T16:13:10.124Z,36.60
2022-09-02T16:15:40.489Z,36.63
2022-09-02T16:18:08.549Z,37.14
2022-09-02T16:20:37.893Z,36.87
2022-09-02T16:23:05.837Z,36.25
2022-09-02T16:25:33.740Z,36.32
2022-09-02T16:28:02.002Z,36.41
2022-09-02T16:30:30.388Z,37.08
2022-09-02T16:32:59.561Z,37.38
2022-09-02T16:35:27.653Z,37.45
2022-09-02T16:37:57.495Z,37.24
2022-09-02T16:40:27.924Z,37.39
2022-09-02T16:42:55.896Z,38.11
2022-09-02T16:45:23.738Z,37.75
2022-09-02T16:47:51.622Z,38.32
2022-09-02T16:50:19.981Z,37.96
2022-09-02T16:52:48.041Z,37.20
2022-09-02T16:55:18.781Z,37.28
2022-09-02T16:57:48.966Z,37.69
2022-09-02T17:00:17.959Z,38.14
2022-09-02T17:02:45.882Z,37.90
2022-09-02T17:05:17.811Z,37.81
2022-09-02T17:07:46.962Z,37.52
2022-09-02T17:10:18.992Z,38.09
2022-09-02T17:12:47.061Z,38.23
2022-09-02T17:15:15.307Z,38.16
2022-09-02T17:17:43.545Z,38.09
2022-09-02T17:20:13.176Z,38.17
2022-09-02T17:22:41.404Z,38.53
2022-09-02T17:25:10.184Z,38.86
2022-09-02T17:27:41.100Z,38.38
2022-09-02T17:30:12.404Z,39.24
2022-09-02T17:32:40.643Z,38.70
2022-09-02T17:35:12.746Z,38.51
2022-09-02T17:37:41.180Z,38.29
2022-09-02T17:40:28.720Z,39.43
2022-09-02T17:42:57.966Z,38.85
2022-09-02T17:45:25.992Z,38.95
2022-09-02T17:47:53.936Z,38.86
2022-09-02T17:50:21.805Z,39.28
2022-09-02T17:52:49.949Z,39.54
2022-09-02T17:55:20.297Z,39.75
2022-09-02T17:57:59.785Z,40.55
2022-09-02T18:00:32.491Z,40.20
2022-09-02T18:03:22.327Z,40.54
2022-09-02T18:05:57.342Z,40.98
2022-09-02T18:08:34.963Z,40.35
2022-09-02T18:11:06.694Z,40.85
2022-09-02T18:13:45.168Z,40.73
2022-09-02T18:16:29.578Z,41.36
2022-09-02T18:19:14.137Z,42.01
2022-09-02T18:21:54.118Z,41.55
2022-09-02T18:24:36.051Z,41.55
2022-09-02T18:27:17.030Z,41.48
2022-09-02T18:29:59.929Z,42.10
2022-09-02T18:32:43.306Z,42.32
2022-09-02T18:35:26.909Z,41.49
2022-09-02T18:38:07.697Z,42.01
2022-09-02T18:40:44.247Z,42.38
2022-09-02T18:43:19.581Z,41.97
2022-09-02T18:45:50.094Z,42.80
2022-09-02T18:48:22.553Z,42.87
2022-09-02T18:50:53.699Z,43.06
2022-09-02T18:53:23.791Z,42.84
2022-09-02T18:55:53.881Z,43.18
2022-09-02T18:58:35.174Z,43.38
2022-09-02T19:01:14.950Z,43.37
2022-09-02T19:03:47.023Z,43.50
2022-09-02T19:06:19.932Z,43.70
2022-09-02T19:08:48.073Z,44.30
2022-09-02T19:11:19.265Z,44.40
2022-09-02T19:13:49.802Z,44.03
2022-09-02T19:16:19.659Z,44.56
2022-09-02T19:18:50.756Z,44.54
2022-09-02T19:21:24.768Z,44.22
2022-09-02T19:23:55.484Z,44.25
2022-09-02T19:26:24.753Z,43.92
2022-09-02T19:28:55.502Z,44.08
2022-09-02T19:31:29.790Z,43.91
2022-09-02T19:34:03.195Z,44.39
2022-09-02T19:36:33.877Z,44.45
2022-09-02T19:39:01.748Z,45.74
2022-09-02T19:41:31.696Z,45.00
2022-09-02T19:44:00.301Z,44.10
2022-09-02T19:47:06.967Z,44.17
2022-09-02T19:49:20.053Z,44.23
2022-09-02T19:51:48.561Z,43.88
2022-09-02T19:54:17.882Z,44.83
2022-09-02T19:56:46.209Z,44.89
2022-09-02T19:59:14.231Z,44.25
2022-09-02T20:01:42.212Z,44.71
2022-09-02T20:04:11.608Z,44.82
2022-09-02T20:06:40.967Z,44.80
2022-09-02T20:09:09.021Z,45.34
2022-09-02T20:11:38.652Z,45.57
2022-09-02T20:14:09.302Z,45.35
2022-09-02T20:16:37.262Z,45.46
2022-09-02T20:19:05.289Z,45.30
2022-09-02T20:21:42.077Z,45.79
2022-09-02T20:24:13.664Z,46.77
2022-09-02T20:26:51.062Z,46.97
2022-09-02T20:29:38.618Z,46.78
2022-09-02T20:32:19.674Z,46.55
2022-09-02T20:35:05.501Z,46.26
2022-09-02T20:37:41.533Z,46.46
2022-09-02T20:40:27.045Z,46.22
2022-09-02T20:43:33.491Z,46.33
2022-09-02T20:46:12.068Z,46.44
2022-09-02T20:48:54.383Z,46.95
2022-09-02T20:51:26.645Z,46.60
2022-09-02T20:54:08.134Z,47.67
2022-09-02T20:56:47.289Z,47.02
2022-09-02T20:59:26.766Z,46.94
2022-09-02T21:01:58.686Z,47.10
2022-09-02T21:04:35.911Z,46.64
2022-09-02T21:07:09.455Z,46.82
2022-09-02T21:09:43.334Z,46.86
2022-09-02T21:12:21.689Z,46.95
2022-09-02T21:14:55.804Z,47.68
2022-09-02T21:17:35.498Z,47.51
2022-09-02T21:20:09.865Z,47.21
2022-09-02T21:22:41.641Z,46.89
2022-09-02T21:25:12.851Z,47.10
2022-09-02T21:27:53.072Z,47.17
2022-09-02T21:30:23.087Z,48.11
2022-09-02T21:32:53.117Z,47.47
2022-09-02T21:35:24.219Z,47.36
2022-09-02T21:37:59.289Z,47.40
2022-09-02T21:40:41.399Z,47.44
2022-09-02T21:43:31.025Z,47.55
2022-09-02T21:46:10.342Z,47.49
2022-09-02T21:48:48.009Z,47.13
2022-09-02T21:51:25.607Z,46.95
2022-09-02T21:54:09.044Z,47.21
2022-09-02T21:56:53.110Z,47.30
2022-09-02T21:59:45.933Z,47.48
2022-09-02T22:02:20.676Z,47.28
2022-09-02T22:05:02.112Z,47.82
2022-09-02T22:07:39.076Z,47.66
2022-09-02T22:10:17.791Z,47.78
2022-09-02T22:12:52.609Z,48.22
2022-09-02T22:15:33.982Z,48.09
2022-09-02T22:18:11.943Z,48.37
2022-09-02T22:20:45.177Z,48.40
2022-09-02T22:23:23.586Z,49.06
2022-09-02T22:25:54.076Z,49.07
2022-09-02T22:28:27.123Z,49.21
2022-09-02T22:30:59.946Z,49.55
2022-09-02T22:33:33.969Z,50.48
2022-09-02T22:36:12.001Z,50.57
2022-09-02T22:38:47.037Z,50.95
2022-09-02T22:41:23.795Z,50.70
2022-09-02T22:43:59.332Z,52.78
2022-09-02T22:46:52.680Z,53.48
2022-09-02T22:49:40.496Z,52.70
2022-09-02T22:52:40.527Z,53.05
2022-09-02T22:55:13.259Z,52.93
2022-09-02T22:57:51.996Z,52.47
2022-09-02T23:00:20.724Z,53.94
2022-09-02T23:03:01.840Z,55.67
2022-09-02T23:05:45.043Z,55.40
2022-09-02T23:08:14.553Z,56.14
2022-09-02T23:10:50.137Z,54.65
2022-09-02T23:13:26.202Z,55.12
2022-09-02T23:16:11.880Z,55.14
2022-09-02T23:18:57.085Z,54.36
2022-09-02T23:21:32.885Z,55.13
2022-09-02T23:24:13.296Z,54.97
2022-09-02T23:26:46.253Z,54.85
2022-09-02T23:29:19.860Z,55.12
2022-09-02T23:32:23.469Z,54.85
2022-09-02T23:35:04.234Z,54.70
2022-09-02T23:37:49.494Z,55.83
2022-09-02T23:40:23.835Z,55.34
2022-09-02T23:42:52.078Z,55.85
2022-09-02T23:45:22.705Z,55.97
2022-09-02T23:48:15.797Z,56.84
2022-09-02T23:51:00.153Z,58.29
2022-09-02T23:53:35.043Z,58.11
2022-09-02T23:56:15.785Z,58.85
2022-09-02T23:58:57.482Z,56.40
